createdAt,value
2022-08-16T00:01:24.917Z,79.93
2022-08-16T00:03:55.748Z,80.02
2022-08-16T00:06:25.074Z,80.00
2022-08-16T00:08:54.214Z,80.42
2022-08-16T00:11:23.513Z,80.71
2022-08-16T00:13:55.631Z,79.93
2022-08-16T00:17:00.528Z,79.60
2022-08-16T00:19:18.078Z,79.82
2022-08-16T00:21:52.222Z,79.92
2022-08-16T00:24:32.827Z,80.11
2022-08-16T00:27:02.575Z,79.65
2022-08-16T00:29:33.976Z,79.41
2022-08-16T00:32:07.288Z,79.74
2022-08-16T00:34:43.972Z,79.62
2022-08-16T00:37:24.523Z,80.11
2022-08-16T00:39:57.175Z,79.83
2022-08-16T00:42:29.744Z,80.07
2022-08-16T00:45:09.467Z,80.17
2022-08-16T00:47:48.937Z,80.45
2022-08-16T00:50:35.863Z,81.39
2022-08-16T00:53:05.900Z,80.81
2022-08-16T00:55:38.289Z,80.90
2022-08-16T00:58:12.938Z,80.81
2022-08-16T01:00:54.376Z,80.88
2022-08-16T01:03:30.410Z,81.01
2022-08-16T01:06:40.095Z,81.15
2022-08-16T01:09:00.242Z,80.66
2022-08-16T01:11:30.776Z,80.90
2022-08-16T01:14:08.121Z,81.15
2022-08-16T01:16:39.998Z,81.10
2022-08-16T01:19:19.741Z,81.55
2022-08-16T01:21:58.196Z,81.23
2022-08-16T01:24:55.621Z,81.16
2022-08-16T01:27:34.675Z,80.85
2022-08-16T01:30:19.586Z,80.62
2022-08-16T01:33:01.825Z,80.86
2022-08-16T01:35:39.761Z,80.49
2022-08-16T01:38:22.224Z,81.28
2022-08-16T01:41:02.574Z,81.52
2022-08-16T01:43:37.350Z,81.41
2022-08-16T01:46:37.860Z,80.84
2022-08-16T01:49:07.856Z,80.76
2022-08-16T01:51:39.201Z,81.12
2022-08-16T01:54:09.953Z,81.45
2022-08-16T01:56:51.739Z,80.86
2022-08-16T01:59:24.103Z,80.92
2022-08-16T02:01:59.500Z,80.66
2022-08-16T02:04:49.116Z,81.11
2022-08-16T02:07:24.736Z,81.51
2022-08-16T02:09:56.997Z,81.48
2022-08-16T02:12:49.709Z,80.85
2022-08-16T02:15:24.997Z,81.46
2022-08-16T02:17:57.491Z,81.26
2022-08-16T02:20:28.464Z,80.54
2022-08-16T02:22:59.653Z,80.38
2022-08-16T02:25:51.859Z,81.00
2022-08-16T02:28:23.406Z,81.48
2022-08-16T02:30:53.978Z,81.99
2022-08-16T02:33:43.403Z,82.38
2022-08-16T02:36:42.315Z,82.39
2022-08-16T02:39:11.685Z,82.16
2022-08-16T02:41:53.410Z,82.26
2022-08-16T02:44:26.973Z,81.89
2022-08-16T02:46:58.086Z,82.30
2022-08-16T02:49:32.217Z,82.31
2022-08-16T02:52:29.269Z,81.94
2022-08-16T02:55:05.762Z,81.75
2022-08-16T02:57:34.608Z,81.91
2022-08-16T03:00:34.222Z,81.40
2022-08-16T03:03:00.708Z,81.71
2022-08-16T03:05:32.843Z,81.68
2022-08-16T03:08:03.734Z,81.61
2022-08-16T03:10:39.195Z,81.66
2022-08-16T03:13:12.266Z,81.68
2022-08-16T03:15:45.115Z,81.30
2022-08-16T03:18:40.438Z,81.65
2022-08-16T03:21:10.126Z,81.35
2022-08-16T03:23:43.787Z,81.48
2022-08-16T03:26:14.547Z,81.10
2022-08-16T03:28:43.682Z,81.05
2022-08-16T03:31:15.081Z,81.37
2022-08-16T03:33:44.337Z,81.72
2022-08-16T03:36:29.821Z,81.26
2022-08-16T03:39:04.895Z,81.34
2022-08-16T03:41:50.686Z,81.38
2022-08-16T03:44:44.809Z,81.76
2022-08-16T03:47:18.638Z,82.11
2022-08-16T03:49:51.590Z,81.95
2022-08-16T03:52:23.515Z,81.88
2022-08-16T03:54:57.917Z,81.75
2022-08-16T03:57:31.696Z,81.97
2022-08-16T04:00:20.670Z,82.49
2022-08-16T04:03:09.760Z,82.63
2022-08-16T04:05:48.434Z,82.80
2022-08-16T04:08:23.380Z,83.42
2022-08-16T04:10:57.932Z,83.26
2022-08-16T04:13:59.115Z,83.14
2022-08-16T04:16:28.435Z,83.22
2022-08-16T04:19:09.599Z,82.92
2022-08-16T04:21:47.103Z,83.25
2022-08-16T04:24:21.861Z,83.70
2022-08-16T04:26:58.029Z,84.05
2022-08-16T04:29:27.930Z,83.92
2022-08-16T04:32:14.866Z,83.90
2022-08-16T04:34:47.363Z,84.01
2022-08-16T04:37:16.220Z,83.91
2022-08-16T04:39:55.739Z,84.24
2022-08-16T04:42:29.699Z,84.69
2022-08-16T04:45:05.485Z,84.13
2022-08-16T04:47:36.502Z,84.66
2022-08-16T04:50:18.821Z,84.83
2022-08-16T04:53:03.137Z,84.97
2022-08-16T04:55:38.217Z,84.88
2022-08-16T04:58:43.768Z,85.21
2022-08-16T05:00:59.985Z,85.18
2022-08-16T05:03:29.981Z,85.53
2022-08-16T05:06:05.195Z,85.71
2022-08-16T05:08:36.770Z,85.88
2022-08-16T05:11:20.285Z,86.08
2022-08-16T05:13:51.843Z,85.93
2022-08-16T05:16:30.433Z,85.99
2022-08-16T05:19:11.619Z,86.48
2022-08-16T05:22:02.848Z,86.41
2022-08-16T05:24:32.840Z,86.51
2022-08-16T05:27:11.314Z,86.82
2022-08-16T05:30:01.098Z,87.07
2022-08-16T05:32:36.279Z,87.23
2022-08-16T05:35:17.906Z,87.10
2022-08-16T05:38:02.084Z,87.31
2022-08-16T05:40:33.590Z,87.74
2022-08-16T05:43:04.130Z,87.46
2022-08-16T05:45:34.423Z,87.72
2022-08-16T05:48:06.894Z,87.62
2022-08-16T05:50:52.971Z,87.96
2022-08-16T05:53:25.029Z,88.10
2022-08-16T05:56:09.899Z,88.28
2022-08-16T05:58:43.289Z,88.28
2022-08-16T06:01:14.800Z,88.31
2022-08-16T06:03:47.330Z,87.96
2022-08-16T06:06:28.033Z,88.75
2022-08-16T06:09:00.242Z,88.52
2022-08-16T06:11:30.120Z,88.43
2022-08-16T06:14:02.741Z,88.30
2022-08-16T06:16:37.451Z,88.79
2022-08-16T06:19:06.697Z,88.74
2022-08-16T06:21:39.163Z,88.59
2022-08-16T06:24:53.704Z,88.60
2022-08-16T06:26:59.407Z,88.65
2022-08-16T06:29:33.915Z,88.74
2022-08-16T06:32:04.222Z,89.08
2022-08-16T06:34:56.064Z,89.02
2022-08-16T06:37:23.512Z,88.66
2022-08-16T06:39:54.011Z,88.57
2022-08-16T06:42:47.268Z,88.13
2022-08-16T06:45:52.421Z,88.01
2022-08-16T06:48:32.974Z,87.81
2022-08-16T06:51:06.092Z,87.41
2022-08-16T06:53:36.888Z,87.29
2022-08-16T06:56:14.728Z,87.67
2022-08-16T06:59:09.019Z,87.27
2022-08-16T07:01:54.570Z,86.86
2022-08-16T07:04:33.179Z,86.49
2022-08-16T07:07:14.361Z,85.58
2022-08-16T07:09:44.335Z,85.28
2022-08-16T07:12:15.399Z,84.64
2022-08-16T07:14:47.902Z,84.62
2022-08-16T07:17:21.650Z,83.47
2022-08-16T07:20:02.748Z,82.56
2022-08-16T07:22:53.114Z,82.01
2022-08-16T07:25:40.525Z,81.68
2022-08-16T07:28:20.806Z,78.52
2022-08-16T07:30:54.694Z,78.79
2022-08-16T07:33:51.864Z,77.78
2022-08-16T07:36:27.735Z,76.55
2022-08-16T07:38:58.830Z,77.56
2022-08-16T07:41:30.380Z,76.53
2022-08-16T07:44:16.594Z,74.60
2022-08-16T07:46:47.442Z,74.38
2022-08-16T07:49:25.046Z,74.70
2022-08-16T07:51:55.938Z,74.32
2022-08-16T07:54:31.972Z,73.45
2022-08-16T07:57:03.675Z,73.17
2022-08-16T07:59:46.149Z,71.26
2022-08-16T08:02:20.011Z,70.69
2022-08-16T08:04:53.807Z,67.19
2022-08-16T08:07:23.038Z,68.25
2022-08-16T08:09:59.387Z,67.71
2022-08-16T08:12:32.663Z,68.70
2022-08-16T08:15:13.224Z,68.10
2022-08-16T08:17:44.804Z,67.67
2022-08-16T08:20:28.371Z,67.80
2022-08-16T08:23:02.458Z,67.10
2022-08-16T08:25:55.199Z,66.56
2022-08-16T08:28:27.762Z,66.36
2022-08-16T08:31:10.032Z,65.32
2022-08-16T08:33:47.540Z,63.39
2022-08-16T08:36:33.019Z,62.17
2022-08-16T08:39:12.849Z,61.69
2022-08-16T08:41:46.504Z,62.21
2022-08-16T08:44:29.835Z,61.73
2022-08-16T08:47:10.931Z,59.92
2022-08-16T08:49:46.482Z,59.07
2022-08-16T08:52:35.394Z,58.82
2022-08-16T08:55:11.359Z,60.19
2022-08-16T08:57:46.505Z,59.17
2022-08-16T09:00:51.111Z,59.07
2022-08-16T09:03:23.818Z,60.00
2022-08-16T09:05:57.410Z,58.52
2022-08-16T09:08:27.357Z,57.22
2022-08-16T09:11:03.263Z,57.17
2022-08-16T09:13:34.293Z,55.94
2022-08-16T09:16:04.938Z,56.43
2022-08-16T09:18:36.834Z,53.70
2022-08-16T09:21:09.605Z,54.65
2022-08-16T09:23:40.256Z,52.59
2022-08-16T09:26:45.015Z,52.60
2022-08-16T09:29:13.723Z,53.65
2022-08-16T09:31:47.832Z,54.44
2022-08-16T09:34:24.289Z,54.82
2022-08-16T09:36:58.049Z,56.46
2022-08-16T09:39:41.602Z,58.74
2022-08-16T09:42:15.312Z,57.96
2022-08-16T09:45:12.492Z,60.04
2022-08-16T09:47:56.862Z,60.93
2022-08-16T09:50:36.802Z,60.89
2022-08-16T09:53:15.448Z,62.27
2022-08-16T09:55:50.342Z,60.76
2022-08-16T09:58:41.893Z,61.95
2022-08-16T10:01:11.530Z,62.41
2022-08-16T10:04:02.179Z,62.88
2022-08-16T10:06:33.301Z,63.15
2022-08-16T10:09:05.247Z,61.07
2022-08-16T10:11:53.305Z,57.57
2022-08-16T10:14:24.931Z,54.04
2022-08-16T10:17:05.736Z,52.40
2022-08-16T10:19:34.991Z,53.99
2022-08-16T10:22:05.714Z,52.75
2022-08-16T10:24:35.206Z,52.20
2022-08-16T10:27:26.152Z,53.38
2022-08-16T10:30:01.187Z,52.82
2022-08-16T10:32:36.162Z,51.83
2022-08-16T10:35:10.123Z,48.73
2022-08-16T10:37:40.374Z,46.38
2022-08-16T10:40:28.630Z,46.67
2022-08-16T10:43:00.535Z,47.29
2022-08-16T10:45:36.426Z,46.49
2022-08-16T10:48:27.123Z,41.95
2022-08-16T10:50:59.022Z,44.06
2022-08-16T10:53:32.951Z,44.04
2022-08-16T10:56:52.806Z,48.01
2022-08-16T10:59:32.440Z,47.52
2022-08-16T11:02:56.689Z,46.73
2022-08-16T11:10:20.694Z,42.15
2022-08-16T11:12:52.688Z,41.11
2022-08-16T11:15:22.018Z,39.23
2022-08-16T11:20:49.069Z,39.27
2022-08-16T11:23:18.678Z,39.28
2022-08-16T11:26:06.514Z,37.88
2022-08-16T11:29:12.722Z,37.77
2022-08-16T11:31:26.591Z,37.52
2022-08-16T11:33:55.550Z,41.32
2022-08-16T11:36:28.123Z,40.39
2022-08-16T11:38:58.788Z,37.14
2022-08-16T11:41:32.318Z,36.82
2022-08-16T11:44:01.568Z,36.16
2022-08-16T11:46:44.851Z,36.47
2022-08-16T11:49:16.505Z,36.00
2022-08-16T11:51:46.035Z,35.26
2022-08-16T11:54:21.300Z,33.77
2022-08-16T11:56:57.653Z,32.92
2022-08-16T11:59:29.488Z,32.99
2022-08-16T12:02:04.274Z,32.42
2022-08-16T12:04:51.745Z,31.95
2022-08-16T12:07:23.588Z,32.38
2022-08-16T12:09:53.037Z,31.63
2022-08-16T12:12:25.166Z,31.75
2022-08-16T12:14:59.504Z,32.68
2022-08-16T12:17:31.624Z,32.66
2022-08-16T12:20:01.248Z,31.59
2022-08-16T12:22:31.221Z,32.45
2022-08-16T12:25:07.498Z,33.26
2022-08-16T12:27:39.480Z,33.59
2022-08-16T12:30:21.776Z,35.80
2022-08-16T12:32:57.871Z,35.27
2022-08-16T12:35:29.705Z,34.29
2022-08-16T12:38:00.917Z,35.73
2022-08-16T12:40:42.013Z,36.69
2022-08-16T12:43:14.567Z,36.99
2022-08-16T12:45:48.966Z,38.12
2022-08-16T12:48:38.451Z,38.81
2022-08-16T12:51:19.846Z,39.12
2022-08-16T12:53:52.893Z,38.42
2022-08-16T12:56:26.171Z,41.15
2022-08-16T12:59:02.276Z,40.54
2022-08-16T13:01:35.123Z,41.81
2022-08-16T13:04:20.269Z,43.37
2022-08-16T13:06:52.146Z,43.33
2022-08-16T13:09:26.456Z,44.04
2022-08-16T13:12:03.844Z,39.38
2022-08-16T13:14:42.300Z,41.35
2022-08-16T13:17:18.914Z,39.64
2022-08-16T13:20:09.350Z,36.52
2022-08-16T13:22:42.732Z,37.36
2022-08-16T13:25:19.376Z,36.50
2022-08-16T13:28:02.859Z,37.71
2022-08-16T13:30:41.758Z,37.07
2022-08-16T13:33:16.969Z,37.60
2022-08-16T13:35:56.235Z,39.88
2022-08-16T13:38:37.028Z,39.04
2022-08-16T13:41:09.499Z,40.80
2022-08-16T13:43:40.455Z,41.08
2022-08-16T13:46:11.022Z,40.20
2022-08-16T13:48:43.948Z,40.67
2022-08-16T13:51:17.548Z,40.47
2022-08-16T13:53:54.442Z,42.39
2022-08-16T13:56:37.208Z,41.00
2022-08-16T13:59:19.311Z,44.34
2022-08-16T14:01:55.184Z,41.75
2022-08-16T14:04:28.045Z,42.98
2022-08-16T14:06:58.495Z,42.20
2022-08-16T14:09:29.334Z,42.19
2022-08-16T14:12:00.794Z,42.99
2022-08-16T14:14:31.736Z,41.45
2022-08-16T14:17:03.395Z,39.83
2022-08-16T14:19:32.428Z,39.45
2022-08-16T14:22:14.511Z,40.48
2022-08-16T14:24:49.009Z,41.31
2022-08-16T14:27:19.735Z,39.76
2022-08-16T14:29:52.331Z,40.29
2022-08-16T14:32:34.488Z,41.54
2022-08-16T14:35:08.307Z,40.63
2022-08-16T14:37:38.527Z,40.67
2022-08-16T14:40:11.566Z,39.41
2022-08-16T14:42:44.155Z,37.01
2022-08-16T14:45:15.614Z,34.19
2022-08-16T14:47:49.733Z,34.15
2022-08-16T14:50:25.376Z,35.30
2022-08-16T14:52:59.814Z,34.95
2022-08-16T14:55:31.325Z,36.18
2022-08-16T14:58:01.055Z,38.40
2022-08-16T15:00:36.343Z,38.70
2022-08-16T15:03:10.746Z,40.39
2022-08-16T15:05:41.830Z,40.86
2022-08-16T15:08:11.362Z,40.60
2022-08-16T15:10:44.823Z,42.13
2022-08-16T15:13:16.419Z,42.02
2022-08-16T15:15:51.248Z,39.57
2022-08-16T15:18:31.725Z,35.24
2022-08-16T15:21:02.238Z,37.03
2022-08-16T15:23:33.564Z,39.06
2022-08-16T15:26:04.190Z,39.67
2022-08-16T15:28:38.254Z,39.69
2022-08-16T15:31:13.198Z,40.92
2022-08-16T15:33:51.060Z,41.21
2022-08-16T15:36:25.856Z,39.08
2022-08-16T15:39:07.071Z,42.50
2022-08-16T15:42:06.781Z,42.54
2022-08-16T15:44:51.265Z,44.44
2022-08-16T15:47:26.207Z,44.31
2022-08-16T15:49:57.991Z,44.16
2022-08-16T15:52:30.553Z,43.23
2022-08-16T15:55:13.331Z,44.64
2022-08-16T15:57:51.364Z,44.17
2022-08-16T16:00:21.242Z,45.73
2022-08-16T16:02:50.685Z,45.73
2022-08-16T16:05:22.056Z,46.14
2022-08-16T16:07:56.842Z,42.77
2022-08-16T16:10:40.421Z,43.92
2022-08-16T16:13:11.712Z,40.94
2022-08-16T16:15:44.556Z,42.17
2022-08-16T16:18:14.961Z,42.96
2022-08-16T16:20:55.022Z,43.18
2022-08-16T16:23:28.364Z,42.27
2022-08-16T16:25:59.821Z,43.13
2022-08-16T16:29:05.822Z,44.73
2022-08-16T16:31:26.934Z,44.22
2022-08-16T16:33:58.907Z,43.92
2022-08-16T16:36:33.493Z,44.96
2022-08-16T16:39:06.094Z,44.24
2022-08-16T16:41:38.064Z,44.76
2022-08-16T16:44:07.085Z,45.48
2022-08-16T16:46:41.337Z,45.29
2022-08-16T16:49:14.871Z,46.24
2022-08-16T16:51:49.777Z,45.65
2022-08-16T16:54:27.389Z,46.41
2022-08-16T16:56:58.000Z,46.94
2022-08-16T16:59:28.463Z,47.15
2022-08-16T17:02:39.335Z,47.47
2022-08-16T17:04:48.256Z,48.66
2022-08-16T17:07:24.055Z,48.11
2022-08-16T17:09:54.105Z,48.37
2022-08-16T17:12:25.479Z,48.86
2022-08-16T17:15:14.916Z,48.62
2022-08-16T17:17:59.811Z,48.77
2022-08-16T17:20:30.492Z,49.52
2022-08-16T17:23:00.996Z,50.22
2022-08-16T17:25:36.282Z,51.16
2022-08-16T17:28:59.674Z,51.07
2022-08-16T17:30:56.158Z,50.88
2022-08-16T17:33:25.373Z,51.20
2022-08-16T17:35:55.412Z,51.28
2022-08-16T17:38:38.617Z,52.68
2022-08-16T17:41:15.697Z,53.25
2022-08-16T17:43:46.087Z,53.40
2022-08-16T17:46:41.469Z,53.88
2022-08-16T17:49:06.437Z,54.07
2022-08-16T17:51:35.350Z,54.74
2022-08-16T17:54:06.865Z,55.15
2022-08-16T17:56:35.639Z,55.19
2022-08-16T17:59:04.670Z,54.92
2022-08-16T18:01:33.573Z,55.35
2022-08-16T18:04:09.257Z,55.65
2022-08-16T18:06:39.607Z,56.25
2022-08-16T18:09:11.102Z,56.04
2022-08-16T18:11:44.666Z,56.01
2022-08-16T18:14:15.141Z,56.85
2022-08-16T18:16:46.253Z,56.58
2022-08-16T18:19:15.247Z,57.29
2022-08-16T18:22:01.956Z,57.72
2022-08-16T18:24:32.148Z,57.30
2022-08-16T18:27:24.710Z,57.69
2022-08-16T18:29:52.134Z,58.30
2022-08-16T18:32:23.074Z,58.88
2022-08-16T18:34:54.531Z,59.16
2022-08-16T18:37:24.005Z,59.27
2022-08-16T18:39:54.297Z,59.26
2022-08-16T18:42:25.450Z,59.20
2022-08-16T18:44:54.207Z,59.45
2022-08-16T18:47:22.972Z,59.61
2022-08-16T18:49:51.699Z,59.93
2022-08-16T18:52:25.237Z,59.66
2022-08-16T18:55:01.571Z,60.14
2022-08-16T18:57:32.179Z,60.22
2022-08-16T19:00:00.914Z,60.20
2022-08-16T19:02:42.922Z,60.46
2022-08-16T19:05:25.520Z,60.40
2022-08-16T19:07:54.314Z,60.04
2022-08-16T19:10:24.686Z,59.91
2022-08-16T19:12:53.612Z,60.60
2022-08-16T19:15:26.380Z,61.00
2022-08-16T19:17:55.497Z,61.18
2022-08-16T19:20:27.661Z,61.44
2022-08-16T19:23:09.798Z,61.87
2022-08-16T19:25:47.008Z,61.78
2022-08-16T19:28:50.950Z,61.44
2022-08-16T19:31:15.594Z,62.07
2022-08-16T19:33:53.328Z,61.99
2022-08-16T19:36:31.327Z,61.96
2022-08-16T19:39:05.427Z,61.85
2022-08-16T19:41:37.973Z,61.54
2022-08-16T19:44:08.447Z,61.84
2022-08-16T19:46:38.322Z,61.87
2022-08-16T19:49:07.581Z,62.05
2022-08-16T19:51:37.623Z,62.23
2022-08-16T19:54:06.924Z,62.36
2022-08-16T19:56:37.237Z,62.53
2022-08-16T19:59:22.352Z,63.01
2022-08-16T20:01:54.937Z,62.97
2022-08-16T20:04:25.944Z,63.04
2022-08-16T20:06:56.126Z,62.75
2022-08-16T20:09:26.491Z,63.07
2022-08-16T20:11:56.937Z,63.32
2022-08-16T20:14:26.717Z,62.70
2022-08-16T20:17:00.940Z,62.69
2022-08-16T20:19:40.369Z,62.93
2022-08-16T20:22:51.944Z,62.65
2022-08-16T20:25:28.465Z,63.29
2022-08-16T20:28:00.996Z,63.19
2022-08-16T20:30:29.918Z,63.50
2022-08-16T20:32:58.678Z,63.83
2022-08-16T20:35:29.734Z,64.07
2022-08-16T20:38:00.047Z,64.28
2022-08-16T20:40:34.264Z,63.92
2022-08-16T20:43:09.941Z,64.04
2022-08-16T20:45:40.915Z,64.45
2022-08-16T20:48:09.789Z,64.45
2022-08-16T20:50:39.277Z,64.62
2022-08-16T20:53:09.176Z,64.38
2022-08-16T20:55:41.769Z,64.94
2022-08-16T20:58:12.313Z,64.91
2022-08-16T21:00:41.404Z,64.97
2022-08-16T21:03:12.295Z,64.63
2022-08-16T21:05:41.409Z,64.78
2022-08-16T21:08:29.520Z,65.11
2022-08-16T21:11:02.243Z,65.06
2022-08-16T21:13:34.500Z,65.06
2022-08-16T21:16:05.464Z,65.26
2022-08-16T21:18:34.228Z,65.29
2022-08-16T21:21:03.066Z,65.21
2022-08-16T21:23:31.821Z,65.40
2022-08-16T21:26:00.616Z,65.36
2022-08-16T21:28:38.721Z,65.73
2022-08-16T21:31:11.211Z,65.53
2022-08-16T21:33:40.146Z,66.12
2022-08-16T21:36:09.840Z,65.67
2022-08-16T21:38:38.589Z,66.30
2022-08-16T21:41:10.476Z,66.16
2022-08-16T21:43:41.099Z,66.35
2022-08-16T21:46:10.854Z,66.80
2022-08-16T21:48:40.840Z,66.84
2022-08-16T21:51:13.372Z,66.74
2022-08-16T21:53:43.041Z,66.79
2022-08-16T21:56:16.711Z,66.79
2022-08-16T21:58:52.863Z,67.37
2022-08-16T22:01:23.935Z,67.07
2022-08-16T22:04:09.655Z,67.78
2022-08-16T22:06:44.210Z,67.90
2022-08-16T22:09:16.827Z,68.04
2022-08-16T22:11:46.361Z,68.08
2022-08-16T22:14:16.602Z,68.30
2022-08-16T22:16:45.296Z,68.26
2022-08-16T22:19:14.349Z,68.68
2022-08-16T22:21:43.174Z,68.50
2022-08-16T22:24:12.052Z,68.45
2022-08-16T22:26:43.373Z,68.24
2022-08-16T22:29:16.012Z,68.03
2022-08-16T22:31:46.032Z,67.74
2022-08-16T22:34:15.307Z,67.99
2022-08-16T22:36:44.083Z,67.94
2022-08-16T22:39:15.366Z,67.71
2022-08-16T22:41:45.946Z,67.38
2022-08-16T22:44:16.731Z,67.81
2022-08-16T22:46:46.139Z,68.05
2022-08-16T22:49:16.451Z,67.54
2022-08-16T22:51:45.284Z,68.08
2022-08-16T22:54:43.925Z,67.64
2022-08-16T22:57:03.117Z,68.02
2022-08-16T22:59:34.292Z,68.01
2022-08-16T23:02:07.783Z,68.22
2022-08-16T23:04:37.206Z,68.08
2022-08-16T23:07:06.720Z,68.42
2022-08-16T23:09:35.541Z,68.47
2022-08-16T23:12:06.233Z,68.15
2022-08-16T23:14:36.499Z,68.36
2022-08-16T23:17:05.306Z,68.04
2022-08-16T23:19:34.099Z,68.37
2022-08-16T23:22:02.853Z,68.14
2022-08-16T23:24:37.161Z,68.23
2022-08-16T23:27:21.516Z,68.40
2022-08-16T23:29:52.735Z,68.75
2022-08-16T23:32:21.442Z,68.72
2022-08-16T23:34:50.230Z,68.79
2022-08-16T23:37:21.979Z,69.11
2022-08-16T23:39:50.822Z,68.99
2022-08-16T23:42:53.253Z,69.25
2022-08-16T23:45:13.961Z,69.55
2022-08-16T23:47:42.733Z,69.46
2022-08-16T23:50:12.151Z,69.46
2022-08-16T23:52:55.927Z,69.90
2022-08-16T23:55:25.485Z,69.58
2022-08-16T23:57:54.722Z,69.76
